createdAt,value
2018-09-25T00:02:19.156Z,2.23
2018-09-25T00:04:59.676Z,2.40
2018-09-25T00:07:35.540Z,2.00
2018-09-25T00:10:11.280Z,2.07
2018-09-25T00:12:47.516Z,1.70
2018-09-25T00:15:21.088Z,1.97
2018-09-25T00:17:57.350Z,1.97
2018-09-25T00:20:43.566Z,2.33
2018-09-25T00:23:17.475Z,2.20
2018-09-25T00:25:53.907Z,2.03
2018-09-25T00:28:31.817Z,2.10
2018-09-25T00:31:08.413Z,2.50
2018-09-25T00:33:47.573Z,2.40
2018-09-25T00:36:21.246Z,2.10
2018-09-25T00:39:00.083Z,1.77
2018-09-25T00:41:35.819Z,2.03
2018-09-25T00:44:09.486Z,2.03
2018-09-25T00:46:46.017Z,2.20
2018-09-25T00:49:24.467Z,2.07
2018-09-25T00:52:07.580Z,2.10
2018-09-25T00:54:53.681Z,1.90
2018-09-25T00:57:27.377Z,1.73
2018-09-25T01:02:50.199Z,2.23
2018-09-25T01:05:26.921Z,1.90
2018-09-25T01:08:04.740Z,1.87
2018-09-25T01:10:38.427Z,1.77
2018-09-25T01:13:14.994Z,1.90
2018-09-25T01:18:29.378Z,2.20
2018-09-25T01:21:05.082Z,2.97
2018-09-25T01:23:40.874Z,2.07
2018-09-25T01:26:20.772Z,2.20
2018-09-25T01:28:54.495Z,2.20
2018-09-25T01:31:30.953Z,2.60
2018-09-25T01:34:09.706Z,2.43
2018-09-25T01:36:45.676Z,2.43
2018-09-25T01:39:22.399Z,2.20
2018-09-25T01:41:58.779Z,2.13
2018-09-25T01:44:37.258Z,2.40
2018-09-25T01:47:13.039Z,2.30
2018-09-25T01:49:48.367Z,2.10
2018-09-25T01:52:22.063Z,2.53
2018-09-25T01:55:01.410Z,1.93
2018-09-25T01:57:35.038Z,2.43
2018-09-25T02:00:13.738Z,2.10
2018-09-25T02:02:54.249Z,2.07
2018-09-25T02:05:30.238Z,2.70
2018-09-25T02:08:06.670Z,2.20
2018-09-25T02:10:43.362Z,2.47
2018-09-25T02:13:27.732Z,2.70
2018-09-25T02:16:05.642Z,2.40
2018-09-25T02:18:39.585Z,2.40
2018-09-25T02:23:57.677Z,2.60
2018-09-25T02:26:33.049Z,2.30
2018-09-25T02:29:06.748Z,2.40
2018-09-25T02:31:40.366Z,2.50
2018-09-25T02:34:24.288Z,2.93
2018-09-25T02:37:00.048Z,2.80
2018-09-25T02:39:35.929Z,3.53
2018-09-25T02:42:16.327Z,3.17
2018-09-25T02:44:52.209Z,3.63
2018-09-25T02:47:26.012Z,3.47
2018-09-25T02:50:04.488Z,3.40
2018-09-25T02:52:42.298Z,3.63
2018-09-25T02:55:16.175Z,3.43
2018-09-25T02:57:56.094Z,2.80
2018-09-25T03:00:29.636Z,2.70
2018-09-25T03:03:03.230Z,3.27
2018-09-25T03:05:47.338Z,3.20
2018-09-25T03:08:20.967Z,3.37
2018-09-25T03:10:54.691Z,3.43
2018-09-25T03:13:37.709Z,2.90
2018-09-25T03:16:11.486Z,3.13
2018-09-25T03:21:35.258Z,2.90
2018-09-25T03:24:18.354Z,2.63
2018-09-25T03:26:54.406Z,3.53
2018-09-25T03:29:30.183Z,3.37
2018-09-25T03:32:05.849Z,3.50
2018-09-25T03:34:46.595Z,3.00
2018-09-25T03:37:20.053Z,2.70
2018-09-25T03:39:56.001Z,3.23
2018-09-25T03:42:32.806Z,3.40
2018-09-25T03:45:08.508Z,3.50
2018-09-25T03:47:42.016Z,3.23
2018-09-25T03:50:15.581Z,2.77
2018-09-25T03:52:51.235Z,2.57
2018-09-25T03:55:27.949Z,2.43
2018-09-25T03:58:06.001Z,3.07
2018-09-25T04:00:42.384Z,3.03
2018-09-25T04:03:25.430Z,3.40
2018-09-25T04:05:59.029Z,2.90
2018-09-25T04:08:32.643Z,2.60
2018-09-25T04:11:08.579Z,3.37
2018-09-25T04:13:44.319Z,3.80
2018-09-25T04:16:17.886Z,3.23
2018-09-25T04:18:51.310Z,3.73
2018-09-25T04:21:27.032Z,4.00
2018-09-25T04:24:05.769Z,4.00
2018-09-25T04:26:41.510Z,3.57
2018-09-25T04:29:17.142Z,3.80
2018-09-25T04:31:53.526Z,3.50
2018-09-25T04:34:32.249Z,3.90
2018-09-25T04:37:12.765Z,3.57
2018-09-25T04:39:48.452Z,3.93
2018-09-25T04:42:24.114Z,4.17
2018-09-25T04:45:07.373Z,3.80
2018-09-25T04:47:43.152Z,4.00
2018-09-25T04:50:19.641Z,3.60
2018-09-25T04:52:57.993Z,3.57
2018-09-25T04:55:34.126Z,4.50
2018-09-25T04:58:17.433Z,9.50
2018-09-25T05:01:01.384Z,6.60
2018-09-25T05:03:35.308Z,4.83
2018-09-25T05:06:12.507Z,4.80
2018-09-25T05:08:46.309Z,5.17
2018-09-25T05:11:22.463Z,4.40
2018-09-25T05:13:58.144Z,4.90
2018-09-25T05:16:34.346Z,3.80
2018-09-25T05:19:20.259Z,3.90
2018-09-25T05:21:54.065Z,4.20
2018-09-25T05:24:29.803Z,3.90
2018-09-25T05:27:06.423Z,3.50
2018-09-25T05:29:44.358Z,3.90
2018-09-25T05:32:23.729Z,4.33
2018-09-25T05:34:59.502Z,3.63
2018-09-25T05:37:37.906Z,3.80
2018-09-25T05:40:14.317Z,4.13
2018-09-25T05:42:50.806Z,4.03
2018-09-25T05:45:29.221Z,3.53
2018-09-25T05:48:09.119Z,3.60
2018-09-25T05:50:42.982Z,3.70
2018-09-25T05:53:19.436Z,3.10
2018-09-25T05:55:57.938Z,3.50
2018-09-25T05:58:34.315Z,3.53
2018-09-25T06:01:14.245Z,2.93
2018-09-25T06:03:48.235Z,3.13
2018-09-25T06:06:23.898Z,3.27
2018-09-25T06:08:57.480Z,4.10
2018-09-25T06:11:31.197Z,3.77
2018-09-25T06:14:09.812Z,3.87
2018-09-25T06:16:45.253Z,3.70
2018-09-25T06:19:21.863Z,3.30
2018-09-25T06:21:57.574Z,3.53
2018-09-25T06:24:31.038Z,4.67
2018-09-25T06:27:04.752Z,4.07
2018-09-25T06:29:41.533Z,4.33
2018-09-25T06:32:19.436Z,4.47
2018-09-25T06:34:56.397Z,4.50
2018-09-25T06:37:34.990Z,3.93
2018-09-25T06:40:08.635Z,4.20
2018-09-25T06:42:42.403Z,3.93
2018-09-25T06:45:18.598Z,3.80
2018-09-25T06:48:01.772Z,3.60
2018-09-25T06:50:35.473Z,3.40
2018-09-25T06:53:12.227Z,3.17
2018-09-25T06:58:44.296Z,3.70
2018-09-25T07:01:17.977Z,4.30
2018-09-25T07:03:57.626Z,3.80
2018-09-25T07:06:37.604Z,4.67
2018-09-25T07:09:15.685Z,4.20
2018-09-25T07:11:51.140Z,4.87
2018-09-25T07:14:24.688Z,4.87
2018-09-25T07:16:58.310Z,5.10
2018-09-25T07:19:31.748Z,4.70
2018-09-25T07:22:05.205Z,5.13
2018-09-25T07:24:41.034Z,5.37
2018-09-25T07:27:21.692Z,5.17
2018-09-25T07:29:55.278Z,5.50
2018-09-25T07:32:30.888Z,4.77
2018-09-25T07:35:04.677Z,4.70
2018-09-25T07:37:40.861Z,5.23
2018-09-25T07:40:18.269Z,4.53
2018-09-25T07:42:53.926Z,5.03
2018-09-25T07:45:32.649Z,4.10
2018-09-25T07:48:06.124Z,4.57
2018-09-25T07:50:42.470Z,4.07
2018-09-25T07:53:18.768Z,4.03
2018-09-25T07:55:55.176Z,4.40
2018-09-25T07:58:33.026Z,3.63
2018-09-25T08:01:06.663Z,4.50
2018-09-25T08:03:45.639Z,3.77
2018-09-25T08:06:19.273Z,4.10
2018-09-25T08:08:54.922Z,3.83
2018-09-25T08:11:30.744Z,4.10
2018-09-25T08:14:08.461Z,3.57
2018-09-25T08:16:44.200Z,3.90
2018-09-25T08:19:19.572Z,3.40
2018-09-25T08:21:53.002Z,3.53
2018-09-25T08:24:28.452Z,3.37
2018-09-25T08:27:04.327Z,3.50
2018-09-25T08:29:43.081Z,3.73
2018-09-25T08:32:17.242Z,3.60
2018-09-25T08:34:53.235Z,2.97
2018-09-25T08:37:36.523Z,3.30
2018-09-25T08:40:14.330Z,2.90
2018-09-25T08:42:52.733Z,3.20
2018-09-25T08:45:30.523Z,4.10
2018-09-25T08:48:04.062Z,3.37
2018-09-25T08:50:37.686Z,3.67
2018-09-25T08:53:14.329Z,2.07
2018-09-25T08:55:50.799Z,2.73
2018-09-25T08:58:30.867Z,2.73
2018-09-25T09:01:06.684Z,2.00
2018-09-25T09:03:47.193Z,2.10
2018-09-25T09:06:22.931Z,2.10
2018-09-25T09:08:56.580Z,1.77
2018-09-25T09:11:33.031Z,2.20
2018-09-25T09:14:16.869Z,2.40
2018-09-25T09:16:52.285Z,2.43
2018-09-25T09:19:27.883Z,2.33
2018-09-25T09:22:01.585Z,2.20
2018-09-25T09:24:38.264Z,1.93
2018-09-25T09:27:21.412Z,2.10
2018-09-25T09:30:04.489Z,2.00
2018-09-25T09:32:39.857Z,2.10
2018-09-25T09:35:13.541Z,2.33
2018-09-25T09:37:49.226Z,2.60
2018-09-25T09:40:25.625Z,2.50
2018-09-25T09:43:10.817Z,1.77
2018-09-25T09:45:46.469Z,1.63
2018-09-25T09:48:22.675Z,2.40
2018-09-25T09:51:05.912Z,2.73
2018-09-25T09:53:41.408Z,2.57
2018-09-25T09:56:17.167Z,2.63
2018-09-25T09:58:55.189Z,2.37
2018-09-25T10:01:30.840Z,2.33
2018-09-25T10:04:11.975Z,1.70
2018-09-25T10:06:45.602Z,1.77
2018-09-25T10:09:22.300Z,2.20
2018-09-25T10:11:58.258Z,1.87
2018-09-25T10:14:33.902Z,1.80
2018-09-25T10:17:10.639Z,2.00
2018-09-25T10:19:54.495Z,1.87
2018-09-25T10:22:28.120Z,2.70
2018-09-25T10:25:08.870Z,2.60
2018-09-25T10:27:44.651Z,1.80
2018-09-25T10:30:18.419Z,1.70
2018-09-25T10:32:57.757Z,2.13
2018-09-25T10:35:36.505Z,1.53
2018-09-25T10:38:12.317Z,1.67
2018-09-25T10:40:47.871Z,1.50
2018-09-25T10:43:30.966Z,1.70
2018-09-25T10:48:45.196Z,1.83
2018-09-25T10:51:23.915Z,1.30
2018-09-25T10:53:59.657Z,2.07
2018-09-25T10:56:33.237Z,1.60
2018-09-25T10:59:08.949Z,1.73
2018-09-25T11:01:45.194Z,1.70
2018-09-25T11:04:28.385Z,1.70
2018-09-25T11:07:02.130Z,1.50
2018-09-25T11:09:38.422Z,1.70
2018-09-25T11:12:14.952Z,1.80
2018-09-25T11:14:51.573Z,1.30
2018-09-25T11:17:31.619Z,1.67
2018-09-25T11:20:07.440Z,1.57
2018-09-25T11:22:43.122Z,1.90
2018-09-25T11:25:16.756Z,1.53
2018-09-25T11:27:50.435Z,1.70
2018-09-25T11:30:27.176Z,1.63
2018-09-25T11:33:07.209Z,1.70
2018-09-25T11:35:48.819Z,1.67
2018-09-25T11:38:25.155Z,1.60
2018-09-25T11:41:04.256Z,1.57
2018-09-25T11:43:37.747Z,1.20
2018-09-25T11:46:13.548Z,1.17
2018-09-25T11:48:49.995Z,1.53
2018-09-25T11:51:27.918Z,1.20
2018-09-25T11:54:06.325Z,0.93
2018-09-25T11:56:40.173Z,1.30
2018-09-25T11:59:16.607Z,1.20
2018-09-25T12:01:53.017Z,1.20
2018-09-25T12:04:29.520Z,1.33
2018-09-25T12:07:07.472Z,0.70
2018-09-25T12:09:41.048Z,1.10
2018-09-25T12:12:24.357Z,1.00
2018-09-25T12:15:09.640Z,1.20
2018-09-25T12:17:45.317Z,0.80
2018-09-25T12:20:26.190Z,1.30
2018-09-25T12:22:59.821Z,1.03
2018-09-25T12:25:39.311Z,0.97
2018-09-25T12:28:13.890Z,1.10
2018-09-25T12:30:54.386Z,0.97
2018-09-25T12:33:32.421Z,1.17
2018-09-25T12:36:06.064Z,1.23
2018-09-25T12:38:44.858Z,1.00
2018-09-25T12:41:22.750Z,1.40
2018-09-25T12:43:56.460Z,1.07
2018-09-25T12:46:32.590Z,1.30
2018-09-25T12:49:06.259Z,1.00
2018-09-25T12:51:45.068Z,0.63
2018-09-25T12:54:18.726Z,0.90
2018-09-25T12:56:52.357Z,1.20
2018-09-25T12:59:36.236Z,1.00
2018-09-25T13:02:24.122Z,1.17
2018-09-25T13:05:08.136Z,0.90
2018-09-25T13:07:43.497Z,1.07
2018-09-25T13:10:17.079Z,1.10
2018-09-25T13:12:52.730Z,0.90
2018-09-25T13:15:35.878Z,0.80
2018-09-25T13:18:09.369Z,1.10
2018-09-25T13:20:43.120Z,1.13
2018-09-25T13:23:19.165Z,1.40
2018-09-25T13:25:52.683Z,1.13
2018-09-25T13:28:26.368Z,0.97
2018-09-25T13:31:05.181Z,0.97
2018-09-25T13:33:40.939Z,1.10
2018-09-25T13:36:19.016Z,1.30
2018-09-25T13:38:54.738Z,1.03
2018-09-25T13:41:28.320Z,1.00
2018-09-25T13:44:04.071Z,1.20
2018-09-25T13:49:20.223Z,1.10
2018-09-25T13:54:32.116Z,0.90
2018-09-25T13:57:05.779Z,1.17
2018-09-25T13:59:39.465Z,0.80
2018-09-25T14:02:22.726Z,1.00
2018-09-25T14:05:06.606Z,1.10
2018-09-25T14:07:42.106Z,1.00
2018-09-25T14:10:15.647Z,0.97
2018-09-25T14:12:49.096Z,0.90
2018-09-25T14:15:22.798Z,1.07
2018-09-25T14:17:58.342Z,0.83
2018-09-25T14:20:35.013Z,0.90
2018-09-25T14:23:11.462Z,0.60
2018-09-25T14:28:26.792Z,1.03
2018-09-25T14:31:00.486Z,1.00
2018-09-25T14:33:39.247Z,0.83
2018-09-25T14:36:15.255Z,1.00
2018-09-25T14:38:51.865Z,0.80
2018-09-25T14:41:28.275Z,1.00
2018-09-25T14:44:09.267Z,1.27
2018-09-25T14:46:43.142Z,1.23
2018-09-25T14:49:19.593Z,1.57
2018-09-25T14:51:56.113Z,1.03
2018-09-25T14:54:37.538Z,1.13
2018-09-25T14:57:13.945Z,1.20
2018-09-25T14:59:51.838Z,1.30
2018-09-25T15:02:27.817Z,0.90
2018-09-25T15:07:42.745Z,0.80
2018-09-25T15:10:18.465Z,1.10
2018-09-25T15:12:52.376Z,0.90
2018-09-25T15:15:30.821Z,1.10
2018-09-25T15:18:10.106Z,1.40
2018-09-25T15:20:47.916Z,0.93
2018-09-25T15:23:23.577Z,1.30
2018-09-25T15:26:00.235Z,0.80
2018-09-25T15:28:36.635Z,0.90
2018-09-25T15:31:14.189Z,1.13
2018-09-25T15:33:52.894Z,1.10
2018-09-25T15:36:28.810Z,1.13
2018-09-25T15:39:12.101Z,1.03
2018-09-25T15:41:50.826Z,0.90
2018-09-25T15:44:30.704Z,1.40
2018-09-25T15:47:04.497Z,1.00
2018-09-25T15:49:40.733Z,0.80
2018-09-25T15:52:17.306Z,0.87
2018-09-25T15:54:53.868Z,1.27
2018-09-25T15:57:31.830Z,1.30
2018-09-25T16:00:05.504Z,1.20
2018-09-25T16:02:45.018Z,1.03
2018-09-25T16:05:21.443Z,1.23
2018-09-25T16:08:00.454Z,1.07
2018-09-25T16:10:33.960Z,1.13
2018-09-25T16:13:09.613Z,1.07
2018-09-25T16:15:45.857Z,1.10
2018-09-25T16:18:21.538Z,1.40
2018-09-25T16:20:57.998Z,0.97
2018-09-25T16:23:34.069Z,1.00
2018-09-25T16:26:07.644Z,1.40
2018-09-25T16:28:44.079Z,1.87
2018-09-25T16:34:01.884Z,1.77
2018-09-25T16:36:48.015Z,1.90
2018-09-25T16:39:23.880Z,2.00
2018-09-25T16:42:02.449Z,1.73
2018-09-25T16:44:38.084Z,1.70
2018-09-25T16:47:11.562Z,1.60
2018-09-25T16:49:47.192Z,1.57
2018-09-25T16:52:22.921Z,1.60
2018-09-25T16:54:58.980Z,1.40
2018-09-25T16:57:34.779Z,1.37
2018-09-25T17:00:14.426Z,1.60
2018-09-25T17:02:50.131Z,1.13
2018-09-25T17:05:23.764Z,1.27
2018-09-25T17:07:59.396Z,1.20
2018-09-25T17:10:39.306Z,1.50
2018-09-25T17:13:13.121Z,1.80
2018-09-25T17:15:56.265Z,2.10
2018-09-25T17:18:30.024Z,2.30
2018-09-25T17:21:06.521Z,2.60
2018-09-25T17:23:47.525Z,2.40
2018-09-25T17:26:21.325Z,2.30
2018-09-25T17:29:00.658Z,2.10
2018-09-25T17:31:40.399Z,2.10
2018-09-25T17:34:16.300Z,2.50
2018-09-25T17:36:51.899Z,2.90
2018-09-25T17:39:29.686Z,3.27
2018-09-25T17:42:03.165Z,6.33
2018-09-25T17:44:38.863Z,10.17
2018-09-25T17:47:12.632Z,8.93
2018-09-25T17:49:48.834Z,4.70
2018-09-25T17:52:24.505Z,5.73
2018-09-25T17:55:05.404Z,7.03
2018-09-25T17:57:38.989Z,3.87
2018-09-25T18:00:16.888Z,3.83
2018-09-25T18:02:54.669Z,3.37
2018-09-25T18:05:30.256Z,3.37
2018-09-25T18:08:05.695Z,2.97
2018-09-25T18:10:39.149Z,3.80
2018-09-25T18:13:12.870Z,3.70
2018-09-25T18:15:49.342Z,3.97
2018-09-25T18:18:25.789Z,4.90
2018-09-25T18:21:03.384Z,4.27
2018-09-25T18:23:39.797Z,4.00
2018-09-25T18:26:16.198Z,4.20
2018-09-25T18:28:54.185Z,3.63
2018-09-25T18:31:33.540Z,3.00
2018-09-25T18:34:09.307Z,3.00
2018-09-25T18:36:47.146Z,2.40
2018-09-25T18:39:22.781Z,2.30
2018-09-25T18:41:58.444Z,1.93
2018-09-25T18:44:34.861Z,2.40
2018-09-25T18:47:13.568Z,2.37
2018-09-25T18:49:51.507Z,2.20
2018-09-25T18:52:35.434Z,2.33
2018-09-25T18:55:11.267Z,3.00
2018-09-25T18:57:55.138Z,3.07
2018-09-25T19:00:30.808Z,2.80
2018-09-25T19:03:04.894Z,3.10
2018-09-25T19:05:44.943Z,2.90
2018-09-25T19:08:21.619Z,2.47
2018-09-25T19:13:38.858Z,2.90
2018-09-25T19:16:14.315Z,3.47
2018-09-25T19:18:47.788Z,4.40
2018-09-25T19:21:21.570Z,5.10
2018-09-25T19:23:58.244Z,3.70
2018-09-25T19:26:36.213Z,3.07
2018-09-25T19:29:11.981Z,2.90
2018-09-25T19:31:53.805Z,2.97
2018-09-25T19:34:27.832Z,2.83
2018-09-25T19:37:07.838Z,3.77
2018-09-25T19:39:44.336Z,3.73
2018-09-25T19:42:23.940Z,4.33
2018-09-25T19:45:01.906Z,4.47
2018-09-25T19:47:35.555Z,4.20
2018-09-25T19:50:11.429Z,3.57
2018-09-25T19:52:49.331Z,2.90
2018-09-25T19:55:32.581Z,2.70
2018-09-25T19:58:06.188Z,2.60
2018-09-25T20:00:43.013Z,3.43
2018-09-25T20:03:18.825Z,4.00
2018-09-25T20:05:52.462Z,3.67
2018-09-25T20:08:30.647Z,4.00
2018-09-25T20:11:04.311Z,3.67
2018-09-25T20:13:40.823Z,3.63
2018-09-25T20:16:17.089Z,3.27
2018-09-25T20:18:52.723Z,3.03
2018-09-25T20:21:29.174Z,3.00
2018-09-25T20:24:02.710Z,3.10
2018-09-25T20:26:40.543Z,2.73
2018-09-25T20:29:16.442Z,2.80
2018-09-25T20:31:55.206Z,3.03
2018-09-25T20:34:31.062Z,2.27
2018-09-25T20:37:14.330Z,2.50
2018-09-25T20:39:54.514Z,2.63
2018-09-25T20:42:28.165Z,2.47
2018-09-25T20:45:03.888Z,2.30
2018-09-25T20:47:40.338Z,2.13
2018-09-25T20:50:16.798Z,2.33
2018-09-25T20:52:54.568Z,2.57
2018-09-25T20:55:30.496Z,2.97
2018-09-25T20:58:06.115Z,4.10
2018-09-25T21:00:46.097Z,3.27
2018-09-25T21:03:21.803Z,3.10
2018-09-25T21:05:59.466Z,3.63
2018-09-25T21:08:35.216Z,3.23
2018-09-25T21:11:10.867Z,2.73
2018-09-25T21:13:50.331Z,2.80
2018-09-25T21:16:31.084Z,2.70
2018-09-25T21:19:07.438Z,2.97
2018-09-25T21:21:45.254Z,2.90
2018-09-25T21:24:18.821Z,2.57
2018-09-25T21:26:54.530Z,2.80
2018-09-25T21:29:31.278Z,3.13
2018-09-25T21:32:07.017Z,2.60
2018-09-25T21:34:40.718Z,2.77
2018-09-25T21:37:17.370Z,3.10
2018-09-25T21:39:53.896Z,3.10
2018-09-25T21:42:31.870Z,3.23
2018-09-25T21:45:14.962Z,3.10
2018-09-25T21:47:48.576Z,2.67
2018-09-25T21:50:24.263Z,3.00
2018-09-25T21:53:00.518Z,2.67
2018-09-25T21:55:43.693Z,2.70
2018-09-25T21:58:17.418Z,2.20
2018-09-25T22:00:54.227Z,2.50
2018-09-25T22:03:32.598Z,2.50
2018-09-25T22:06:08.329Z,2.10
2018-09-25T22:08:42.018Z,2.23
2018-09-25T22:11:17.992Z,2.03
2018-09-25T22:13:51.731Z,2.27
2018-09-25T22:16:25.412Z,2.20
2018-09-25T22:19:02.096Z,2.63
2018-09-25T22:21:42.041Z,2.40
2018-09-25T22:24:15.601Z,2.63
2018-09-25T22:26:51.316Z,2.80
2018-09-25T22:29:29.806Z,2.50
2018-09-25T22:32:09.789Z,2.80
2018-09-25T22:34:45.536Z,2.40
2018-09-25T22:37:24.080Z,2.53
2018-09-25T22:40:01.713Z,2.90
2018-09-25T22:42:35.538Z,2.43
2018-09-25T22:45:12.260Z,2.40
2018-09-25T22:47:49.975Z,2.77
2018-09-25T22:50:23.703Z,2.50
2018-09-25T22:52:59.414Z,2.40
2018-09-25T22:55:35.869Z,2.50
2018-09-25T22:58:14.317Z,3.00
2018-09-25T23:00:50.830Z,3.43
2018-09-25T23:03:28.792Z,3.90
2018-09-25T23:06:12.047Z,3.03
2018-09-25T23:08:45.767Z,3.80
2018-09-25T23:11:28.950Z,3.00
2018-09-25T23:14:12.891Z,2.87
2018-09-25T23:19:35.924Z,2.47
2018-09-25T23:22:09.669Z,2.20
2018-09-25T23:24:45.321Z,2.30
2018-09-25T23:27:23.219Z,2.20
2018-09-25T23:30:00.140Z,2.60
2018-09-25T23:32:38.465Z,2.30
2018-09-25T23:35:14.922Z,2.50
2018-09-25T23:37:52.567Z,2.50
2018-09-25T23:42:35.267Z,2.93
2018-09-25T23:47:18.979Z,2.10
2018-09-25T23:50:04.910Z,2.53
2018-09-25T23:52:48.959Z,2.70
2018-09-25T23:55:27.630Z,2.40
2018-09-25T23:58:09.221Z,2.00
